sensor_id;sensor_type;location;lat;lon;timestamp;P1;durP1;ratioP1;P2;durP2;ratioP2
5391;SDS011;2719;53.624;9.786;2022-11-15T00:01:51;26.47;;;13.13;;
5391;SDS011;2719;53.624;9.786;2022-11-15T00:04:19;28.63;;;14.37;;
5391;SDS011;2719;53.624;9.786;2022-11-15T00:06:46;24.53;;;13.77;;
5391;SDS011;2719;53.624;9.786;2022-11-15T00:09:12;26.33;;;13.20;;
5391;SDS011;2719;53.624;9.786;2022-11-15T00:11:39;26.37;;;13.20;;
5391;SDS011;2719;53.624;9.786;2022-11-15T00:14:06;26.10;;;13.33;;
5391;SDS011;2719;53.624;9.786;2022-11-15T00:16:32;26.30;;;13.20;;
5391;SDS011;2719;53.624;9.786;2022-11-15T00:18:59;23.90;;;12.70;;
5391;SDS011;2719;53.624;9.786;2022-11-15T00:21:27;32.80;;;12.83;;
5391;SDS011;2719;53.624;9.786;2022-11-15T00:23:54;24.43;;;13.57;;
5391;SDS011;2719;53.624;9.786;2022-11-15T00:26:20;26.83;;;14.30;;
5391;SDS011;2719;53.624;9.786;2022-11-15T00:28:47;24.60;;;12.80;;
5391;SDS011;2719;53.624;9.786;2022-11-15T00:31:14;30.53;;;12.77;;
5391;SDS011;2719;53.624;9.786;2022-11-15T00:33:42;29.03;;;14.33;;
5391;SDS011;2719;53.624;9.786;2022-11-15T00:36:09;27.10;;;14.00;;
5391;SDS011;2719;53.624;9.786;2022-11-15T00:38:38;30.20;;;14.37;;
5391;SDS011;2719;53.624;9.786;2022-11-15T00:41:06;29.83;;;14.10;;
5391;SDS011;2719;53.624;9.786;2022-11-15T00:43:33;25.40;;;12.93;;
5391;SDS011;2719;53.624;9.786;2022-11-15T00:46:00;28.00;;;13.87;;
5391;SDS011;2719;53.624;9.786;2022-11-15T00:48:27;24.47;;;12.90;;
5391;SDS011;2719;53.624;9.786;2022-11-15T00:50:54;27.50;;;13.53;;
5391;SDS011;2719;53.624;9.786;2022-11-15T00:53:21;29.13;;;13.40;;
5391;SDS011;2719;53.624;9.786;2022-11-15T00:55:49;27.20;;;13.37;;
5391;SDS011;2719;53.624;9.786;2022-11-15T00:58:15;34.47;;;13.30;;
5391;SDS011;2719;53.624;9.786;2022-11-15T01:00:42;24.33;;;13.20;;
5391;SDS011;2719;53.624;9.786;2022-11-15T01:03:08;24.27;;;13.20;;
5391;SDS011;2719;53.624;9.786;2022-11-15T01:05:36;27.50;;;13.90;;
5391;SDS011;2719;53.624;9.786;2022-11-15T01:08:03;34.40;;;13.03;;
5391;SDS011;2719;53.624;9.786;2022-11-15T01:10:30;27.90;;;12.67;;
5391;SDS011;2719;53.624;9.786;2022-11-15T01:12:58;26.07;;;12.43;;
5391;SDS011;2719;53.624;9.786;2022-11-15T01:15:25;28.30;;;12.03;;
5391;SDS011;2719;53.624;9.786;2022-11-15T01:17:51;24.37;;;13.33;;
5391;SDS011;2719;53.624;9.786;2022-11-15T01:20:18;24.53;;;12.93;;
5391;SDS011;2719;53.624;9.786;2022-11-15T01:22:44;20.70;;;12.03;;
5391;SDS011;2719;53.624;9.786;2022-11-15T01:25:11;24.33;;;12.43;;
5391;SDS011;2719;53.624;9.786;2022-11-15T01:27:38;21.07;;;11.40;;
5391;SDS011;2719;53.624;9.786;2022-11-15T01:30:07;28.50;;;12.70;;
5391;SDS011;2719;53.624;9.786;2022-11-15T01:32:34;21.53;;;11.80;;
5391;SDS011;2719;53.624;9.786;2022-11-15T01:35:01;22.47;;;13.07;;
5391;SDS011;2719;53.624;9.786;2022-11-15T01:37:27;24.83;;;10.37;;
5391;SDS011;2719;53.624;9.786;2022-11-15T01:39:54;24.63;;;12.20;;
5391;SDS011;2719;53.624;9.786;2022-11-15T01:42:21;20.07;;;12.00;;
5391;SDS011;2719;53.624;9.786;2022-11-15T01:44:48;23.33;;;12.50;;
5391;SDS011;2719;53.624;9.786;2022-11-15T01:47:18;23.87;;;12.03;;
5391;SDS011;2719;53.624;9.786;2022-11-15T01:49:51;19.50;;;10.13;;
5391;SDS011;2719;53.624;9.786;2022-11-15T01:52:22;19.70;;;11.17;;
5391;SDS011;2719;53.624;9.786;2022-11-15T01:54:53;18.73;;;10.60;;
5391;SDS011;2719;53.624;9.786;2022-11-15T01:57:23;21.43;;;10.63;;
5391;SDS011;2719;53.624;9.786;2022-11-15T01:59:50;24.27;;;12.13;;
5391;SDS011;2719;53.624;9.786;2022-11-15T02:02:18;22.80;;;11.97;;
5391;SDS011;2719;53.624;9.786;2022-11-15T02:04:45;22.37;;;11.47;;
5391;SDS011;2719;53.624;9.786;2022-11-15T02:07:14;22.13;;;11.60;;
5391;SDS011;2719;53.624;9.786;2022-11-15T02:09:43;24.87;;;11.20;;
5391;SDS011;2719;53.624;9.786;2022-11-15T02:12:10;21.57;;;11.63;;
5391;SDS011;2719;53.624;9.786;2022-11-15T02:14:40;22.90;;;12.53;;
5391;SDS011;2719;53.624;9.786;2022-11-15T02:17:13;21.60;;;11.50;;
5391;SDS011;2719;53.624;9.786;2022-11-15T02:20:05;25.87;;;11.20;;
5391;SDS011;2719;53.624;9.786;2022-11-15T02:22:48;24.37;;;12.47;;
5391;SDS011;2719;53.624;9.786;2022-11-15T02:25:36;24.10;;;11.80;;
5391;SDS011;2719;53.624;9.786;2022-11-15T02:28:10;26.67;;;10.77;;
5391;SDS011;2719;53.624;9.786;2022-11-15T02:30:54;24.90;;;11.77;;
5391;SDS011;2719;53.624;9.786;2022-11-15T02:33:39;21.00;;;11.13;;
5391;SDS011;2719;53.624;9.786;2022-11-15T02:36:15;22.73;;;11.27;;
5391;SDS011;2719;53.624;9.786;2022-11-15T02:38:50;20.03;;;11.57;;
5391;SDS011;2719;53.624;9.786;2022-11-15T02:41:25;20.13;;;10.77;;
5391;SDS011;2719;53.624;9.786;2022-11-15T02:43:59;18.77;;;9.83;;
5391;SDS011;2719;53.624;9.786;2022-11-15T02:46:33;17.93;;;9.43;;
5391;SDS011;2719;53.624;9.786;2022-11-15T02:49:20;23.60;;;10.70;;
5391;SDS011;2719;53.624;9.786;2022-11-15T02:51:49;21.83;;;10.93;;
5391;SDS011;2719;53.624;9.786;2022-11-15T02:54:19;23.13;;;12.80;;
5391;SDS011;2719;53.624;9.786;2022-11-15T02:56:47;21.13;;;11.10;;
5391;SDS011;2719;53.624;9.786;2022-11-15T02:59:29;19.93;;;10.40;;
5391;SDS011;2719;53.624;9.786;2022-11-15T03:02:16;20.67;;;10.57;;
5391;SDS011;2719;53.624;9.786;2022-11-15T03:04:52;20.93;;;9.53;;
5391;SDS011;2719;53.624;9.786;2022-11-15T03:07:23;23.83;;;9.90;;
5391;SDS011;2719;53.624;9.786;2022-11-15T03:09:54;16.97;;;9.90;;
5391;SDS011;2719;53.624;9.786;2022-11-15T03:12:29;17.70;;;9.40;;
5391;SDS011;2719;53.624;9.786;2022-11-15T03:15:08;23.03;;;9.60;;
5391;SDS011;2719;53.624;9.786;2022-11-15T03:17:40;17.70;;;10.60;;
5391;SDS011;2719;53.624;9.786;2022-11-15T03:20:14;21.40;;;9.70;;
5391;SDS011;2719;53.624;9.786;2022-11-15T03:22:43;19.93;;;10.67;;
5391;SDS011;2719;53.624;9.786;2022-11-15T03:25:13;20.53;;;9.93;;
5391;SDS011;2719;53.624;9.786;2022-11-15T03:27:44;20.37;;;10.57;;
5391;SDS011;2719;53.624;9.786;2022-11-15T03:30:14;25.17;;;11.50;;
5391;SDS011;2719;53.624;9.786;2022-11-15T03:32:44;22.20;;;9.90;;
5391;SDS011;2719;53.624;9.786;2022-11-15T03:35:14;21.60;;;10.70;;
5391;SDS011;2719;53.624;9.786;2022-11-15T03:37:45;20.70;;;10.60;;
5391;SDS011;2719;53.624;9.786;2022-11-15T03:40:18;21.50;;;11.10;;
5391;SDS011;2719;53.624;9.786;2022-11-15T03:42:51;19.60;;;9.13;;
5391;SDS011;2719;53.624;9.786;2022-11-15T03:45:26;20.97;;;10.93;;
5391;SDS011;2719;53.624;9.786;2022-11-15T03:47:59;19.77;;;11.13;;
5391;SDS011;2719;53.624;9.786;2022-11-15T03:50:29;16.70;;;9.80;;
5391;SDS011;2719;53.624;9.786;2022-11-15T03:52:56;21.70;;;10.67;;
5391;SDS011;2719;53.624;9.786;2022-11-15T03:55:24;17.27;;;8.83;;
5391;SDS011;2719;53.624;9.786;2022-11-15T03:57:52;18.23;;;9.20;;
5391;SDS011;2719;53.624;9.786;2022-11-15T04:00:22;17.50;;;9.50;;
5391;SDS011;2719;53.624;9.786;2022-11-15T04:02:49;21.33;;;10.50;;
5391;SDS011;2719;53.624;9.786;2022-11-15T04:05:17;16.60;;;9.10;;
5391;SDS011;2719;53.624;9.786;2022-11-15T04:07:44;25.50;;;9.87;;
5391;SDS011;2719;53.624;9.786;2022-11-15T04:10:11;18.97;;;9.67;;
5391;SDS011;2719;53.624;9.786;2022-11-15T04:12:40;21.77;;;9.60;;
5391;SDS011;2719;53.624;9.786;2022-11-15T04:15:09;19.97;;;10.30;;
5391;SDS011;2719;53.624;9.786;2022-11-15T04:17:39;21.33;;;9.50;;
5391;SDS011;2719;53.624;9.786;2022-11-15T04:20:08;19.60;;;9.40;;
5391;SDS011;2719;53.624;9.786;2022-11-15T04:22:56;17.60;;;9.37;;
5391;SDS011;2719;53.624;9.786;2022-11-15T04:25:41;17.40;;;9.10;;
5391;SDS011;2719;53.624;9.786;2022-11-15T04:28:09;17.23;;;9.93;;
5391;SDS011;2719;53.624;9.786;2022-11-15T04:30:36;18.50;;;8.90;;
5391;SDS011;2719;53.624;9.786;2022-11-15T04:33:03;18.30;;;9.40;;
5391;SDS011;2719;53.624;9.786;2022-11-15T04:35:29;18.63;;;8.53;;
5391;SDS011;2719;53.624;9.786;2022-11-15T04:37:58;16.77;;;8.93;;
5391;SDS011;2719;53.624;9.786;2022-11-15T04:40:23;17.40;;;8.97;;
5391;SDS011;2719;53.624;9.786;2022-11-15T04:42:50;20.27;;;10.57;;
5391;SDS011;2719;53.624;9.786;2022-11-15T04:45:17;18.87;;;9.23;;
5391;SDS011;2719;53.624;9.786;2022-11-15T04:47:43;16.87;;;10.07;;
5391;SDS011;2719;53.624;9.786;2022-11-15T04:50:11;17.30;;;9.23;;
5391;SDS011;2719;53.624;9.786;2022-11-15T04:52:38;18.07;;;9.10;;
5391;SDS011;2719;53.624;9.786;2022-11-15T04:55:08;16.37;;;9.60;;
5391;SDS011;2719;53.624;9.786;2022-11-15T04:57:36;17.53;;;9.60;;
5391;SDS011;2719;53.624;9.786;2022-11-15T05:00:03;19.23;;;9.63;;
5391;SDS011;2719;53.624;9.786;2022-11-15T05:02:31;15.87;;;9.17;;
5391;SDS011;2719;53.624;9.786;2022-11-15T05:05:12;16.50;;;8.83;;
5391;SDS011;2719;53.624;9.786;2022-11-15T05:07:38;19.23;;;8.80;;
5391;SDS011;2719;53.624;9.786;2022-11-15T05:10:05;19.70;;;10.63;;
5391;SDS011;2719;53.624;9.786;2022-11-15T05:12:34;18.37;;;9.93;;
5391;SDS011;2719;53.624;9.786;2022-11-15T05:15:01;19.33;;;9.97;;
5391;SDS011;2719;53.624;9.786;2022-11-15T05:17:28;17.73;;;9.20;;
5391;SDS011;2719;53.624;9.786;2022-11-15T05:19:54;20.17;;;10.43;;
5391;SDS011;2719;53.624;9.786;2022-11-15T05:22:21;20.83;;;10.43;;
5391;SDS011;2719;53.624;9.786;2022-11-15T05:24:48;17.30;;;9.10;;
5391;SDS011;2719;53.624;9.786;2022-11-15T05:27:16;16.53;;;8.93;;
5391;SDS011;2719;53.624;9.786;2022-11-15T05:29:43;18.70;;;10.27;;
5391;SDS011;2719;53.624;9.786;2022-11-15T05:32:09;22.63;;;9.03;;
5391;SDS011;2719;53.624;9.786;2022-11-15T05:34:38;19.63;;;9.90;;
5391;SDS011;2719;53.624;9.786;2022-11-15T05:37:05;19.00;;;9.37;;
5391;SDS011;2719;53.624;9.786;2022-11-15T05:39:32;18.67;;;10.30;;
5391;SDS011;2719;53.624;9.786;2022-11-15T05:42:00;20.73;;;9.27;;
5391;SDS011;2719;53.624;9.786;2022-11-15T05:44:32;20.87;;;10.63;;
5391;SDS011;2719;53.624;9.786;2022-11-15T05:47:00;21.40;;;10.90;;
5391;SDS011;2719;53.624;9.786;2022-11-15T05:49:29;21.90;;;9.70;;
5391;SDS011;2719;53.624;9.786;2022-11-15T05:51:59;19.20;;;10.07;;
5391;SDS011;2719;53.624;9.786;2022-11-15T05:54:28;15.23;;;8.27;;
5391;SDS011;2719;53.624;9.786;2022-11-15T05:56:57;20.33;;;9.37;;
5391;SDS011;2719;53.624;9.786;2022-11-15T05:59:24;22.30;;;8.73;;
5391;SDS011;2719;53.624;9.786;2022-11-15T06:01:53;17.73;;;9.37;;
5391;SDS011;2719;53.624;9.786;2022-11-15T06:04:19;24.93;;;10.67;;
5391;SDS011;2719;53.624;9.786;2022-11-15T06:06:46;16.27;;;9.40;;
5391;SDS011;2719;53.624;9.786;2022-11-15T06:09:13;18.07;;;9.33;;
5391;SDS011;2719;53.624;9.786;2022-11-15T06:11:39;21.80;;;9.20;;
5391;SDS011;2719;53.624;9.786;2022-11-15T06:14:06;18.03;;;9.00;;
5391;SDS011;2719;53.624;9.786;2022-11-15T06:16:33;22.03;;;9.20;;
5391;SDS011;2719;53.624;9.786;2022-11-15T06:19:01;21.00;;;10.63;;
5391;SDS011;2719;53.624;9.786;2022-11-15T06:21:28;18.10;;;8.50;;
5391;SDS011;2719;53.624;9.786;2022-11-15T06:23:55;17.47;;;9.50;;
5391;SDS011;2719;53.624;9.786;2022-11-15T06:26:22;23.67;;;10.63;;
5391;SDS011;2719;53.624;9.786;2022-11-15T06:28:48;17.87;;;10.03;;
5391;SDS011;2719;53.624;9.786;2022-11-15T06:31:15;20.63;;;9.70;;
5391;SDS011;2719;53.624;9.786;2022-11-15T06:33:43;16.10;;;8.50;;
5391;SDS011;2719;53.624;9.786;2022-11-15T06:36:12;16.30;;;9.27;;
5391;SDS011;2719;53.624;9.786;2022-11-15T06:38:41;17.53;;;8.60;;
5391;SDS011;2719;53.624;9.786;2022-11-15T06:41:09;18.57;;;9.53;;
5391;SDS011;2719;53.624;9.786;2022-11-15T06:43:37;18.67;;;9.23;;
5391;SDS011;2719;53.624;9.786;2022-11-15T06:46:04;19.83;;;9.33;;
5391;SDS011;2719;53.624;9.786;2022-11-15T06:48:32;19.33;;;9.30;;
5391;SDS011;2719;53.624;9.786;2022-11-15T06:51:00;16.77;;;9.20;;
5391;SDS011;2719;53.624;9.786;2022-11-15T06:53:29;22.37;;;9.27;;
5391;SDS011;2719;53.624;9.786;2022-11-15T06:55:58;19.17;;;9.70;;
5391;SDS011;2719;53.624;9.786;2022-11-15T06:58:26;17.70;;;9.07;;
5391;SDS011;2719;53.624;9.786;2022-11-15T07:00:52;19.17;;;9.37;;
5391;SDS011;2719;53.624;9.786;2022-11-15T07:03:20;16.30;;;8.67;;
5391;SDS011;2719;53.624;9.786;2022-11-15T07:05:50;18.50;;;9.70;;
5391;SDS011;2719;53.624;9.786;2022-11-15T07:08:19;19.20;;;8.97;;
5391;SDS011;2719;53.624;9.786;2022-11-15T07:10:47;23.00;;;8.20;;
5391;SDS011;2719;53.624;9.786;2022-11-15T07:13:14;15.77;;;8.40;;
5391;SDS011;2719;53.624;9.786;2022-11-15T07:15:40;17.40;;;7.90;;
5391;SDS011;2719;53.624;9.786;2022-11-15T07:18:07;18.10;;;8.70;;
5391;SDS011;2719;53.624;9.786;2022-11-15T07:20:34;12.77;;;7.10;;
5391;SDS011;2719;53.624;9.786;2022-11-15T07:23:01;15.70;;;8.43;;
5391;SDS011;2719;53.624;9.786;2022-11-15T07:25:28;13.00;;;7.30;;
5391;SDS011;2719;53.624;9.786;2022-11-15T07:27:56;15.97;;;8.23;;
5391;SDS011;2719;53.624;9.786;2022-11-15T07:30:24;15.23;;;7.77;;
5391;SDS011;2719;53.624;9.786;2022-11-15T07:32:52;18.90;;;7.40;;
5391;SDS011;2719;53.624;9.786;2022-11-15T07:35:19;17.23;;;8.70;;
5391;SDS011;2719;53.624;9.786;2022-11-15T07:37:52;16.53;;;7.97;;
5391;SDS011;2719;53.624;9.786;2022-11-15T07:40:19;16.10;;;8.43;;
5391;SDS011;2719;53.624;9.786;2022-11-15T07:42:46;14.20;;;7.40;;
5391;SDS011;2719;53.624;9.786;2022-11-15T07:45:20;14.50;;;8.67;;
5391;SDS011;2719;53.624;9.786;2022-11-15T07:47:47;22.93;;;8.20;;
5391;SDS011;2719;53.624;9.786;2022-11-15T07:50:14;18.17;;;7.70;;
5391;SDS011;2719;53.624;9.786;2022-11-15T07:52:41;15.17;;;7.50;;
5391;SDS011;2719;53.624;9.786;2022-11-15T07:55:08;16.03;;;8.30;;
5391;SDS011;2719;53.624;9.786;2022-11-15T07:57:35;13.80;;;7.40;;
5391;SDS011;2719;53.624;9.786;2022-11-15T08:00:03;17.20;;;8.20;;
5391;SDS011;2719;53.624;9.786;2022-11-15T08:02:32;16.67;;;7.77;;
5391;SDS011;2719;53.624;9.786;2022-11-15T08:04:59;13.13;;;7.10;;
5391;SDS011;2719;53.624;9.786;2022-11-15T08:07:27;23.53;;;8.20;;
5391;SDS011;2719;53.624;9.786;2022-11-15T08:09:56;28.50;;;9.20;;
5391;SDS011;2719;53.624;9.786;2022-11-15T08:12:22;16.37;;;8.37;;
5391;SDS011;2719;53.624;9.786;2022-11-15T08:14:49;21.73;;;10.17;;
5391;SDS011;2719;53.624;9.786;2022-11-15T08:17:17;14.97;;;7.97;;
5391;SDS011;2719;53.624;9.786;2022-11-15T08:19:45;13.17;;;7.43;;
5391;SDS011;2719;53.624;9.786;2022-11-15T08:22:12;14.47;;;8.43;;
5391;SDS011;2719;53.624;9.786;2022-11-15T08:24:38;21.40;;;9.27;;
5391;SDS011;2719;53.624;9.786;2022-11-15T08:27:05;16.67;;;9.30;;
5391;SDS011;2719;53.624;9.786;2022-11-15T08:29:39;15.93;;;8.43;;
5391;SDS011;2719;53.624;9.786;2022-11-15T08:32:07;16.23;;;8.07;;
5391;SDS011;2719;53.624;9.786;2022-11-15T08:34:34;22.13;;;8.97;;
5391;SDS011;2719;53.624;9.786;2022-11-15T08:37:02;15.70;;;7.77;;
5391;SDS011;2719;53.624;9.786;2022-11-15T08:39:29;15.60;;;8.00;;
5391;SDS011;2719;53.624;9.786;2022-11-15T08:41:55;15.20;;;8.80;;
5391;SDS011;2719;53.624;9.786;2022-11-15T08:44:22;15.50;;;8.90;;
5391;SDS011;2719;53.624;9.786;2022-11-15T08:46:50;17.03;;;8.27;;
5391;SDS011;2719;53.624;9.786;2022-11-15T08:49:16;21.73;;;8.07;;
5391;SDS011;2719;53.624;9.786;2022-11-15T08:51:43;13.80;;;7.23;;
5391;SDS011;2719;53.624;9.786;2022-11-15T08:54:11;22.17;;;7.70;;
5391;SDS011;2719;53.624;9.786;2022-11-15T08:56:38;17.47;;;8.17;;
5391;SDS011;2719;53.624;9.786;2022-11-15T08:59:04;17.87;;;7.97;;
5391;SDS011;2719;53.624;9.786;2022-11-15T09:01:31;14.43;;;7.00;;
5391;SDS011;2719;53.624;9.786;2022-11-15T09:03:58;22.93;;;7.90;;
5391;SDS011;2719;53.624;9.786;2022-11-15T09:06:24;18.27;;;7.60;;
5391;SDS011;2719;53.624;9.786;2022-11-15T09:08:51;14.83;;;8.40;;
5391;SDS011;2719;53.624;9.786;2022-11-15T09:11:19;21.20;;;8.57;;
5391;SDS011;2719;53.624;9.786;2022-11-15T09:13:47;11.90;;;7.47;;
5391;SDS011;2719;53.624;9.786;2022-11-15T09:16:13;18.83;;;7.90;;
5391;SDS011;2719;53.624;9.786;2022-11-15T09:18:40;18.20;;;8.30;;
5391;SDS011;2719;53.624;9.786;2022-11-15T09:21:08;16.93;;;7.40;;
5391;SDS011;2719;53.624;9.786;2022-11-15T09:23:34;12.77;;;7.33;;
5391;SDS011;2719;53.624;9.786;2022-11-15T09:26:02;16.83;;;7.83;;
5391;SDS011;2719;53.624;9.786;2022-11-15T09:28:31;20.60;;;7.93;;
5391;SDS011;2719;53.624;9.786;2022-11-15T09:30:59;31.10;;;9.00;;
5391;SDS011;2719;53.624;9.786;2022-11-15T09:33:27;21.40;;;9.70;;
5391;SDS011;2719;53.624;9.786;2022-11-15T09:35:57;23.57;;;8.20;;
5391;SDS011;2719;53.624;9.786;2022-11-15T09:38:26;15.67;;;8.50;;
5391;SDS011;2719;53.624;9.786;2022-11-15T09:40:58;15.10;;;8.07;;
5391;SDS011;2719;53.624;9.786;2022-11-15T09:43:42;16.43;;;8.00;;
5391;SDS011;2719;53.624;9.786;2022-11-15T09:46:17;21.17;;;7.63;;
5391;SDS011;2719;53.624;9.786;2022-11-15T09:48:51;11.87;;;7.00;;
5391;SDS011;2719;53.624;9.786;2022-11-15T09:51:27;19.57;;;8.73;;
5391;SDS011;2719;53.624;9.786;2022-11-15T09:53:57;14.00;;;8.00;;
5391;SDS011;2719;53.624;9.786;2022-11-15T09:56:29;14.13;;;7.27;;
5391;SDS011;2719;53.624;9.786;2022-11-15T09:59:00;14.80;;;8.00;;
5391;SDS011;2719;53.624;9.786;2022-11-15T10:01:39;19.10;;;8.40;;
5391;SDS011;2719;53.624;9.786;2022-11-15T10:04:13;16.80;;;8.63;;
5391;SDS011;2719;53.624;9.786;2022-11-15T10:06:42;11.40;;;7.40;;
5391;SDS011;2719;53.624;9.786;2022-11-15T10:09:16;17.60;;;7.70;;
5391;SDS011;2719;53.624;9.786;2022-11-15T10:11:46;24.83;;;9.50;;
5391;SDS011;2719;53.624;9.786;2022-11-15T10:14:15;18.43;;;7.40;;
5391;SDS011;2719;53.624;9.786;2022-11-15T10:16:53;25.40;;;7.17;;
5391;SDS011;2719;53.624;9.786;2022-11-15T10:19:34;21.07;;;7.93;;
5391;SDS011;2719;53.624;9.786;2022-11-15T10:22:10;15.70;;;8.60;;
5391;SDS011;2719;53.624;9.786;2022-11-15T10:24:47;13.87;;;7.67;;
5391;SDS011;2719;53.624;9.786;2022-11-15T10:27:17;13.10;;;6.80;;
5391;SDS011;2719;53.624;9.786;2022-11-15T10:29:47;18.73;;;7.93;;
5391;SDS011;2719;53.624;9.786;2022-11-15T10:32:16;14.50;;;7.67;;
5391;SDS011;2719;53.624;9.786;2022-11-15T10:34:44;17.00;;;9.23;;
5391;SDS011;2719;53.624;9.786;2022-11-15T10:37:12;12.73;;;7.17;;
5391;SDS011;2719;53.624;9.786;2022-11-15T10:39:39;19.37;;;7.43;;
5391;SDS011;2719;53.624;9.786;2022-11-15T10:42:15;12.43;;;7.13;;
5391;SDS011;2719;53.624;9.786;2022-11-15T10:44:44;15.10;;;7.87;;
5391;SDS011;2719;53.624;9.786;2022-11-15T10:47:22;15.43;;;8.00;;
5391;SDS011;2719;53.624;9.786;2022-11-15T10:49:55;16.33;;;8.13;;
5391;SDS011;2719;53.624;9.786;2022-11-15T10:52:23;17.13;;;7.53;;
5391;SDS011;2719;53.624;9.786;2022-11-15T10:54:51;19.03;;;8.10;;
5391;SDS011;2719;53.624;9.786;2022-11-15T10:57:22;21.00;;;7.90;;
5391;SDS011;2719;53.624;9.786;2022-11-15T10:59:51;18.60;;;8.10;;
5391;SDS011;2719;53.624;9.786;2022-11-15T11:02:31;24.00;;;7.80;;
5391;SDS011;2719;53.624;9.786;2022-11-15T11:05:00;23.00;;;7.77;;
5391;SDS011;2719;53.624;9.786;2022-11-15T11:07:30;13.77;;;8.00;;
5391;SDS011;2719;53.624;9.786;2022-11-15T11:10:00;16.57;;;8.20;;
5391;SDS011;2719;53.624;9.786;2022-11-15T11:12:30;16.17;;;8.60;;
5391;SDS011;2719;53.624;9.786;2022-11-15T11:14:59;18.40;;;8.10;;
5391;SDS011;2719;53.624;9.786;2022-11-15T11:17:32;13.40;;;7.67;;
5391;SDS011;2719;53.624;9.786;2022-11-15T11:20:06;12.57;;;6.93;;
5391;SDS011;2719;53.624;9.786;2022-11-15T11:22:39;17.03;;;6.60;;
5391;SDS011;2719;53.624;9.786;2022-11-15T11:25:18;17.17;;;7.13;;
5391;SDS011;2719;53.624;9.786;2022-11-15T11:27:57;13.40;;;7.73;;
5391;SDS011;2719;53.624;9.786;2022-11-15T11:30:34;13.33;;;7.47;;
5391;SDS011;2719;53.624;9.786;2022-11-15T11:33:10;15.23;;;8.03;;
5391;SDS011;2719;53.624;9.786;2022-11-15T11:35:45;36.60;;;8.60;;
5391;SDS011;2719;53.624;9.786;2022-11-15T11:38:28;18.43;;;7.40;;
5391;SDS011;2719;53.624;9.786;2022-11-15T11:41:06;13.60;;;6.60;;
5391;SDS011;2719;53.624;9.786;2022-11-15T11:43:41;14.70;;;8.03;;
5391;SDS011;2719;53.624;9.786;2022-11-15T11:46:25;16.93;;;7.87;;
5391;SDS011;2719;53.624;9.786;2022-11-15T11:49:04;14.97;;;7.53;;
5391;SDS011;2719;53.624;9.786;2022-11-15T11:51:36;9.60;;;6.17;;
5391;SDS011;2719;53.624;9.786;2022-11-15T11:54:10;14.07;;;6.83;;
5391;SDS011;2719;53.624;9.786;2022-11-15T11:56:40;11.37;;;6.40;;
5391;SDS011;2719;53.624;9.786;2022-11-15T11:59:10;11.93;;;6.30;;
5391;SDS011;2719;53.624;9.786;2022-11-15T12:01:44;14.73;;;6.60;;
5391;SDS011;2719;53.624;9.786;2022-11-15T12:04:19;17.77;;;7.47;;
5391;SDS011;2719;53.624;9.786;2022-11-15T12:06:50;10.77;;;6.50;;
5391;SDS011;2719;53.624;9.786;2022-11-15T12:09:21;12.03;;;6.57;;
5391;SDS011;2719;53.624;9.786;2022-11-15T12:11:58;13.27;;;7.53;;
5391;SDS011;2719;53.624;9.786;2022-11-15T12:14:32;13.07;;;6.07;;
5391;SDS011;2719;53.624;9.786;2022-11-15T12:17:03;12.73;;;7.80;;
5391;SDS011;2719;53.624;9.786;2022-11-15T12:19:30;17.00;;;5.93;;
5391;SDS011;2719;53.624;9.786;2022-11-15T12:21:59;27.40;;;7.30;;
5391;SDS011;2719;53.624;9.786;2022-11-15T12:24:29;14.73;;;7.33;;
5391;SDS011;2719;53.624;9.786;2022-11-15T12:27:01;11.13;;;6.40;;
5391;SDS011;2719;53.624;9.786;2022-11-15T12:29:33;16.20;;;7.40;;
5391;SDS011;2719;53.624;9.786;2022-11-15T12:32:05;12.73;;;6.70;;
5391;SDS011;2719;53.624;9.786;2022-11-15T12:34:44;13.47;;;6.50;;
5391;SDS011;2719;53.624;9.786;2022-11-15T12:40:17;13.23;;;6.60;;
5391;SDS011;2719;53.624;9.786;2022-11-15T12:42:57;10.53;;;5.10;;
5391;SDS011;2719;53.624;9.786;2022-11-15T12:45:26;14.87;;;6.60;;
5391;SDS011;2719;53.624;9.786;2022-11-15T12:47:57;13.60;;;5.47;;
5391;SDS011;2719;53.624;9.786;2022-11-15T12:50:57;10.13;;;5.90;;
5391;SDS011;2719;53.624;9.786;2022-11-15T12:53:27;18.13;;;6.37;;
5391;SDS011;2719;53.624;9.786;2022-11-15T12:56:09;13.40;;;5.50;;
5391;SDS011;2719;53.624;9.786;2022-11-15T12:58:47;10.63;;;5.57;;
5391;SDS011;2719;53.624;9.786;2022-11-15T13:04:25;10.27;;;5.70;;
5391;SDS011;2719;53.624;9.786;2022-11-15T13:06:54;10.80;;;4.70;;
5391;SDS011;2719;53.624;9.786;2022-11-15T13:15:34;46.77;;;7.23;;
5391;SDS011;2719;53.624;9.786;2022-11-15T13:21:05;12.80;;;5.47;;
5391;SDS011;2719;53.624;9.786;2022-11-15T13:24:03;10.83;;;5.00;;
5391;SDS011;2719;53.624;9.786;2022-11-15T13:26:30;14.47;;;5.73;;
5391;SDS011;2719;53.624;9.786;2022-11-15T13:28:57;8.47;;;4.97;;
5391;SDS011;2719;53.624;9.786;2022-11-15T13:31:26;11.20;;;5.80;;
5391;SDS011;2719;53.624;9.786;2022-11-15T13:33:56;7.20;;;4.60;;
5391;SDS011;2719;53.624;9.786;2022-11-15T13:36:28;10.27;;;5.63;;
5391;SDS011;2719;53.624;9.786;2022-11-15T13:38:59;9.33;;;4.90;;
5391;SDS011;2719;53.624;9.786;2022-11-15T13:41:28;8.37;;;5.43;;
5391;SDS011;2719;53.624;9.786;2022-11-15T13:43:56;10.70;;;5.70;;
5391;SDS011;2719;53.624;9.786;2022-11-15T13:46:24;12.63;;;5.90;;
5391;SDS011;2719;53.624;9.786;2022-11-15T13:48:54;13.40;;;5.17;;
5391;SDS011;2719;53.624;9.786;2022-11-15T13:51:24;11.40;;;4.83;;
5391;SDS011;2719;53.624;9.786;2022-11-15T13:54:01;7.57;;;4.70;;
5391;SDS011;2719;53.624;9.786;2022-11-15T13:56:32;11.80;;;5.07;;
5391;SDS011;2719;53.624;9.786;2022-11-15T13:59:00;23.37;;;5.40;;
5391;SDS011;2719;53.624;9.786;2022-11-15T14:01:33;13.30;;;5.03;;
5391;SDS011;2719;53.624;9.786;2022-11-15T14:04:00;11.10;;;5.37;;
5391;SDS011;2719;53.624;9.786;2022-11-15T14:06:28;9.63;;;5.10;;
5391;SDS011;2719;53.624;9.786;2022-11-15T14:08:58;16.27;;;4.43;;
5391;SDS011;2719;53.624;9.786;2022-11-15T14:11:27;7.50;;;4.40;;
5391;SDS011;2719;53.624;9.786;2022-11-15T14:14:02;10.70;;;4.17;;
5391;SDS011;2719;53.624;9.786;2022-11-15T14:16:38;9.23;;;5.00;;
5391;SDS011;2719;53.624;9.786;2022-11-15T14:19:08;16.70;;;4.67;;
5391;SDS011;2719;53.624;9.786;2022-11-15T14:21:38;8.03;;;3.30;;
5391;SDS011;2719;53.624;9.786;2022-11-15T14:24:39;10.63;;;4.80;;
5391;SDS011;2719;53.624;9.786;2022-11-15T14:27:16;11.33;;;5.00;;
5391;SDS011;2719;53.624;9.786;2022-11-15T14:29:44;11.23;;;4.23;;
5391;SDS011;2719;53.624;9.786;2022-11-15T14:32:12;9.03;;;4.17;;
5391;SDS011;2719;53.624;9.786;2022-11-15T14:34:41;9.00;;;3.70;;
5391;SDS011;2719;53.624;9.786;2022-11-15T14:37:12;7.03;;;3.83;;
5391;SDS011;2719;53.624;9.786;2022-11-15T14:39:45;9.37;;;4.80;;
5391;SDS011;2719;53.624;9.786;2022-11-15T14:42:12;7.90;;;5.10;;
5391;SDS011;2719;53.624;9.786;2022-11-15T14:44:38;11.70;;;3.97;;
5391;SDS011;2719;53.624;9.786;2022-11-15T14:47:05;10.60;;;4.37;;
5391;SDS011;2719;53.624;9.786;2022-11-15T14:49:32;8.57;;;4.30;;
5391;SDS011;2719;53.624;9.786;2022-11-15T14:51:58;11.73;;;4.87;;
5391;SDS011;2719;53.624;9.786;2022-11-15T14:54:26;12.10;;;5.07;;
5391;SDS011;2719;53.624;9.786;2022-11-15T14:56:53;11.57;;;4.70;;
5391;SDS011;2719;53.624;9.786;2022-11-15T14:59:19;9.20;;;5.33;;
5391;SDS011;2719;53.624;9.786;2022-11-15T15:01:46;9.43;;;5.00;;
5391;SDS011;2719;53.624;9.786;2022-11-15T15:04:13;11.43;;;5.23;;
5391;SDS011;2719;53.624;9.786;2022-11-15T15:06:39;23.43;;;9.07;;
5391;SDS011;2719;53.624;9.786;2022-11-15T15:09:06;15.03;;;5.73;;
5391;SDS011;2719;53.624;9.786;2022-11-15T15:11:34;18.60;;;5.27;;
5391;SDS011;2719;53.624;9.786;2022-11-15T15:14:00;12.37;;;5.13;;
5391;SDS011;2719;53.624;9.786;2022-11-15T15:16:28;9.60;;;4.30;;
5391;SDS011;2719;53.624;9.786;2022-11-15T15:18:54;11.03;;;5.63;;
5391;SDS011;2719;53.624;9.786;2022-11-15T15:21:21;8.67;;;4.53;;
5391;SDS011;2719;53.624;9.786;2022-11-15T15:23:49;9.00;;;4.73;;
5391;SDS011;2719;53.624;9.786;2022-11-15T15:26:16;10.83;;;5.40;;
5391;SDS011;2719;53.624;9.786;2022-11-15T15:28:45;11.87;;;6.23;;
5391;SDS011;2719;53.624;9.786;2022-11-15T15:31:13;20.93;;;10.00;;